sensor_id;sensor_type;location;lat;lon;timestamp;P1;durP1;ratioP1;P2;durP2;ratioP2
5678;SDS011;2862;52.560;13.566;2023-07-31T00:10:00;16.10;;;0.40;;
5678;SDS011;2862;52.560;13.566;2023-07-31T00:20:05;14.13;;;0.40;;
5678;SDS011;2862;52.560;13.566;2023-07-31T00:30:08;14.43;;;0.50;;
5678;SDS011;2862;52.560;13.566;2023-07-31T00:40:13;14.97;;;0.50;;
5678;SDS011;2862;52.560;13.566;2023-07-31T00:50:16;14.30;;;0.57;;
5678;SDS011;2862;52.560;13.566;2023-07-31T01:00:21;13.03;;;0.40;;
5678;SDS011;2862;52.560;13.566;2023-07-31T01:10:26;14.80;;;0.30;;
5678;SDS011;2862;52.560;13.566;2023-07-31T01:20:34;15.83;;;0.60;;
5678;SDS011;2862;52.560;13.566;2023-07-31T01:30:42;13.73;;;0.50;;
5678;SDS011;2862;52.560;13.566;2023-07-31T01:40:50;14.80;;;0.70;;
5678;SDS011;2862;52.560;13.566;2023-07-31T01:50:56;16.00;;;0.97;;
5678;SDS011;2862;52.560;13.566;2023-07-31T02:01:03;17.73;;;1.47;;
5678;SDS011;2862;52.560;13.566;2023-07-31T02:11:09;17.77;;;0.43;;
5678;SDS011;2862;52.560;13.566;2023-07-31T02:21:12;13.63;;;0.53;;
5678;SDS011;2862;52.560;13.566;2023-07-31T02:31:16;16.07;;;1.10;;
5678;SDS011;2862;52.560;13.566;2023-07-31T02:41:20;16.23;;;0.90;;
5678;SDS011;2862;52.560;13.566;2023-07-31T02:51:24;14.63;;;1.23;;
5678;SDS011;2862;52.560;13.566;2023-07-31T03:01:27;16.23;;;0.90;;
5678;SDS011;2862;52.560;13.566;2023-07-31T03:11:31;14.17;;;1.00;;
5678;SDS011;2862;52.560;13.566;2023-07-31T03:21:34;15.43;;;0.87;;
5678;SDS011;2862;52.560;13.566;2023-07-31T03:31:38;15.70;;;1.50;;
5678;SDS011;2862;52.560;13.566;2023-07-31T03:41:40;16.70;;;2.33;;
5678;SDS011;2862;52.560;13.566;2023-07-31T03:51:45;21.13;;;3.70;;
5678;SDS011;2862;52.560;13.566;2023-07-31T04:01:48;23.87;;;3.33;;
5678;SDS011;2862;52.560;13.566;2023-07-31T04:11:52;22.43;;;4.03;;
5678;SDS011;2862;52.560;13.566;2023-07-31T04:21:55;25.93;;;4.87;;
5678;SDS011;2862;52.560;13.566;2023-07-31T04:32:00;21.10;;;3.03;;
5678;SDS011;2862;52.560;13.566;2023-07-31T04:42:03;22.07;;;2.93;;
5678;SDS011;2862;52.560;13.566;2023-07-31T04:52:07;24.37;;;3.37;;
5678;SDS011;2862;52.560;13.566;2023-07-31T05:02:11;20.77;;;3.37;;
5678;SDS011;2862;52.560;13.566;2023-07-31T05:12:16;17.80;;;2.70;;
5678;SDS011;2862;52.560;13.566;2023-07-31T05:22:18;21.40;;;2.83;;
5678;SDS011;2862;52.560;13.566;2023-07-31T05:32:22;23.93;;;3.33;;
5678;SDS011;2862;52.560;13.566;2023-07-31T05:42:25;18.17;;;2.80;;
5678;SDS011;2862;52.560;13.566;2023-07-31T05:52:29;34.60;;;3.23;;
5678;SDS011;2862;52.560;13.566;2023-07-31T06:02:32;22.97;;;3.40;;
5678;SDS011;2862;52.560;13.566;2023-07-31T06:12:39;17.30;;;2.17;;
5678;SDS011;2862;52.560;13.566;2023-07-31T06:22:42;14.63;;;1.40;;
5678;SDS011;2862;52.560;13.566;2023-07-31T06:32:46;23.37;;;2.60;;
5678;SDS011;2862;52.560;13.566;2023-07-31T06:42:49;21.97;;;3.23;;
5678;SDS011;2862;52.560;13.566;2023-07-31T06:52:54;19.90;;;1.83;;
5678;SDS011;2862;52.560;13.566;2023-07-31T07:02:57;19.00;;;2.40;;
5678;SDS011;2862;52.560;13.566;2023-07-31T07:13:01;19.20;;;2.80;;
5678;SDS011;2862;52.560;13.566;2023-07-31T07:23:04;20.97;;;2.57;;
5678;SDS011;2862;52.560;13.566;2023-07-31T07:33:09;23.73;;;4.90;;
5678;SDS011;2862;52.560;13.566;2023-07-31T07:43:12;16.70;;;2.43;;
5678;SDS011;2862;52.560;13.566;2023-07-31T07:53:16;20.43;;;1.37;;
5678;SDS011;2862;52.560;13.566;2023-07-31T08:03:18;19.13;;;2.20;;
5678;SDS011;2862;52.560;13.566;2023-07-31T08:13:23;20.90;;;3.57;;
5678;SDS011;2862;52.560;13.566;2023-07-31T08:23:26;32.30;;;2.00;;
5678;SDS011;2862;52.560;13.566;2023-07-31T08:33:30;15.17;;;1.70;;
5678;SDS011;2862;52.560;13.566;2023-07-31T08:43:33;14.20;;;0.73;;
5678;SDS011;2862;52.560;13.566;2023-07-31T08:53:37;16.10;;;1.17;;
5678;SDS011;2862;52.560;13.566;2023-07-31T09:03:40;13.70;;;0.77;;
5678;SDS011;2862;52.560;13.566;2023-07-31T09:13:45;13.70;;;1.63;;
5678;SDS011;2862;52.560;13.566;2023-07-31T09:23:49;13.70;;;0.83;;
5678;SDS011;2862;52.560;13.566;2023-07-31T09:33:55;12.43;;;0.60;;
5678;SDS011;2862;52.560;13.566;2023-07-31T09:43:58;15.50;;;1.20;;
5678;SDS011;2862;52.560;13.566;2023-07-31T09:54:03;15.57;;;1.00;;
5678;SDS011;2862;52.560;13.566;2023-07-31T10:04:07;13.20;;;0.73;;
5678;SDS011;2862;52.560;13.566;2023-07-31T10:14:11;14.73;;;0.40;;
5678;SDS011;2862;52.560;13.566;2023-07-31T10:24:16;16.57;;;2.10;;
5678;SDS011;2862;52.560;13.566;2023-07-31T10:34:21;14.87;;;1.13;;
5678;SDS011;2862;52.560;13.566;2023-07-31T10:44:24;18.10;;;2.30;;
5678;SDS011;2862;52.560;13.566;2023-07-31T10:54:28;18.53;;;2.33;;
5678;SDS011;2862;52.560;13.566;2023-07-31T11:04:31;20.00;;;2.20;;
5678;SDS011;2862;52.560;13.566;2023-07-31T11:14:36;21.80;;;3.40;;
5678;SDS011;2862;52.560;13.566;2023-07-31T11:24:39;20.67;;;4.00;;
5678;SDS011;2862;52.560;13.566;2023-07-31T11:34:51;22.77;;;4.77;;
5678;SDS011;2862;52.560;13.566;2023-07-31T11:44:55;16.27;;;2.77;;
5678;SDS011;2862;52.560;13.566;2023-07-31T11:54:59;19.80;;;3.90;;
5678;SDS011;2862;52.560;13.566;2023-07-31T12:05:03;17.23;;;2.30;;
5678;SDS011;2862;52.560;13.566;2023-07-31T12:15:14;23.43;;;2.10;;
5678;SDS011;2862;52.560;13.566;2023-07-31T12:25:17;16.30;;;1.67;;
5678;SDS011;2862;52.560;13.566;2023-07-31T12:35:22;15.07;;;1.73;;
5678;SDS011;2862;52.560;13.566;2023-07-31T12:45:25;18.07;;;1.60;;
5678;SDS011;2862;52.560;13.566;2023-07-31T12:55:29;19.57;;;1.80;;
5678;SDS011;2862;52.560;13.566;2023-07-31T13:05:32;15.77;;;1.63;;
5678;SDS011;2862;52.560;13.566;2023-07-31T13:15:37;17.83;;;1.50;;
5678;SDS011;2862;52.560;13.566;2023-07-31T13:25:39;13.33;;;0.70;;
5678;SDS011;2862;52.560;13.566;2023-07-31T13:35:44;18.10;;;0.70;;
5678;SDS011;2862;52.560;13.566;2023-07-31T13:45:47;14.40;;;2.30;;
5678;SDS011;2862;52.560;13.566;2023-07-31T13:55:51;18.47;;;1.97;;
5678;SDS011;2862;52.560;13.566;2023-07-31T14:05:54;17.27;;;1.70;;
5678;SDS011;2862;52.560;13.566;2023-07-31T14:15:59;24.13;;;2.10;;
5678;SDS011;2862;52.560;13.566;2023-07-31T14:26:01;16.07;;;1.80;;
5678;SDS011;2862;52.560;13.566;2023-07-31T14:36:05;22.10;;;2.00;;
5678;SDS011;2862;52.560;13.566;2023-07-31T14:46:08;17.33;;;1.63;;
5678;SDS011;2862;52.560;13.566;2023-07-31T14:56:14;21.33;;;3.20;;
5678;SDS011;2862;52.560;13.566;2023-07-31T15:06:17;18.40;;;1.30;;
5678;SDS011;2862;52.560;13.566;2023-07-31T15:16:21;20.53;;;2.20;;
5678;SDS011;2862;52.560;13.566;2023-07-31T15:26:24;21.03;;;1.83;;
5678;SDS011;2862;52.560;13.566;2023-07-31T15:36:28;16.03;;;1.53;;
5678;SDS011;2862;52.560;13.566;2023-07-31T15:46:31;15.90;;;1.90;;
5678;SDS011;2862;52.560;13.566;2023-07-31T15:56:35;16.00;;;1.97;;
5678;SDS011;2862;52.560;13.566;2023-07-31T16:06:38;18.97;;;2.90;;
5678;SDS011;2862;52.560;13.566;2023-07-31T16:16:42;23.10;;;2.70;;
5678;SDS011;2862;52.560;13.566;2023-07-31T16:26:48;17.00;;;2.13;;
5678;SDS011;2862;52.560;13.566;2023-07-31T16:36:52;21.10;;;3.27;;
5678;SDS011;2862;52.560;13.566;2023-07-31T16:46:56;18.40;;;2.33;;
5678;SDS011;2862;52.560;13.566;2023-07-31T16:57:00;19.57;;;2.70;;
5678;SDS011;2862;52.560;13.566;2023-07-31T17:07:03;23.80;;;1.90;;
5678;SDS011;2862;52.560;13.566;2023-07-31T17:17:07;16.97;;;1.23;;
5678;SDS011;2862;52.560;13.566;2023-07-31T17:27:10;20.50;;;3.30;;
5678;SDS011;2862;52.560;13.566;2023-07-31T17:37:14;15.10;;;1.10;;
5678;SDS011;2862;52.560;13.566;2023-07-31T17:47:17;16.80;;;1.50;;
5678;SDS011;2862;52.560;13.566;2023-07-31T17:57:22;18.33;;;1.93;;
5678;SDS011;2862;52.560;13.566;2023-07-31T18:07:25;17.47;;;1.90;;
5678;SDS011;2862;52.560;13.566;2023-07-31T18:17:30;14.97;;;1.70;;
5678;SDS011;2862;52.560;13.566;2023-07-31T18:27:33;16.10;;;1.50;;
5678;SDS011;2862;52.560;13.566;2023-07-31T18:37:37;14.70;;;1.40;;
5678;SDS011;2862;52.560;13.566;2023-07-31T18:47:40;15.63;;;1.60;;
5678;SDS011;2862;52.560;13.566;2023-07-31T18:57:44;18.70;;;2.50;;
5678;SDS011;2862;52.560;13.566;2023-07-31T19:07:47;15.93;;;1.47;;
5678;SDS011;2862;52.560;13.566;2023-07-31T19:17:52;14.70;;;1.27;;
5678;SDS011;2862;52.560;13.566;2023-07-31T19:27:55;16.10;;;2.20;;
5678;SDS011;2862;52.560;13.566;2023-07-31T19:38:00;16.47;;;1.33;;
5678;SDS011;2862;52.560;13.566;2023-07-31T19:48:02;15.43;;;1.97;;
5678;SDS011;2862;52.560;13.566;2023-07-31T19:58:07;17.37;;;2.30;;
5678;SDS011;2862;52.560;13.566;2023-07-31T20:08:10;15.77;;;1.70;;
5678;SDS011;2862;52.560;13.566;2023-07-31T20:18:14;18.93;;;2.60;;
5678;SDS011;2862;52.560;13.566;2023-07-31T20:28:17;21.93;;;2.03;;
5678;SDS011;2862;52.560;13.566;2023-07-31T20:38:21;20.80;;;3.00;;
5678;SDS011;2862;52.560;13.566;2023-07-31T20:48:23;25.97;;;5.23;;
5678;SDS011;2862;52.560;13.566;2023-07-31T20:58:28;26.93;;;4.60;;
5678;SDS011;2862;52.560;13.566;2023-07-31T21:08:31;23.10;;;3.23;;
5678;SDS011;2862;52.560;13.566;2023-07-31T21:18:35;18.17;;;2.73;;
5678;SDS011;2862;52.560;13.566;2023-07-31T21:28:38;18.03;;;2.13;;
5678;SDS011;2862;52.560;13.566;2023-07-31T21:38:43;16.63;;;1.97;;
5678;SDS011;2862;52.560;13.566;2023-07-31T21:48:46;16.90;;;2.57;;
5678;SDS011;2862;52.560;13.566;2023-07-31T21:58:50;23.90;;;3.00;;
5678;SDS011;2862;52.560;13.566;2023-07-31T22:08:53;20.40;;;3.20;;
5678;SDS011;2862;52.560;13.566;2023-07-31T22:18:58;18.27;;;2.80;;
5678;SDS011;2862;52.560;13.566;2023-07-31T22:29:01;19.33;;;2.77;;
5678;SDS011;2862;52.560;13.566;2023-07-31T22:39:05;20.20;;;3.20;;
5678;SDS011;2862;52.560;13.566;2023-07-31T22:49:08;17.67;;;2.80;;
5678;SDS011;2862;52.560;13.566;2023-07-31T22:59:12;15.80;;;2.10;;
5678;SDS011;2862;52.560;13.566;2023-07-31T23:09:15;19.63;;;2.63;;
5678;SDS011;2862;52.560;13.566;2023-07-31T23:19:20;18.90;;;1.90;;
5678;SDS011;2862;52.560;13.566;2023-07-31T23:29:24;15.90;;;2.60;;
5678;SDS011;2862;52.560;13.566;2023-07-31T23:39:29;18.73;;;2.70;;
5678;SDS011;2862;52.560;13.566;2023-07-31T23:49:31;20.27;;;3.00;;
5678;SDS011;2862;52.560;13.566;2023-07-31T23:59:36;17.40;;;2.80;;
